JANUARY 20th,2017

 

METAR SMJP 200900Z 00000KT 9999 FEW030 24/24 Q1011 NOSIG=

METAR SMZO 200900Z 06002KT 9999 FEW010 SCT020 25/24 Q1011 NOSIG=

METAR SMNI 200900Z 09004KT 9999 FEW012 24/23 Q1012=